Noordwijk-Binnen, Netherlands
Current Conditions -  °F | °C
As of 6:55 AM on Sunday 21 Dec 2014 (Local Time) from EHAM Reporting Station
Scattered Clouds Scattered Clouds  
Wind Chill: 37°   Ceiling: Unl
Heat Index: 43°   Visibility: 6mi
Dew Point: 41°   Wind: 9mph
Humidity: 93%   Direction: 220°SW
Pressure: 30.33"   Gusts: NA
Location:  52.24°N, 4.45°E
Report Text: EHAM 210555Z 22008KT 9999 FEW020 SCT042 06/05 Q1027 NOSIG
Loading
Personal Weather Stations






























Interactive Weather Map New forecast layout! Learn more

10-Day Weather Forecast

Advertisements
Track Severe Weather on mobile